Terminal Aerodrome Forecast
Issued by NWS Paducah, KY

Home | Current Version | Previous Version | Text Only | Print | Product List | Glossary On
Versions: 1 2 3 4 5 6 7 8 9 10 11 12 13 14 15 16 17 18 19 20 21 22
000
FTUS43 KPAH 180500
TAFPAH
TAF
KPAH 180529Z 1806/1906 VRB03KT P6SM OVC070
     FM180900 VRB03KT 4SM -RA BR SCT005 OVC015
      TEMPO 1809/1812 2SM -RAPL OVC005
     FM181200 06003KT 4SM BR OVC010
      TEMPO 1812/1816 2SM -SNPL
     FM181900 04004KT P6SM SCT010 OVC030
     FM182300 06002KT P6SM OVC050=

USA.gov is the U.S. government's official web portal to all federal, state and local government web resources and services.